sensor_id;sensor_type;location;lat;lon;timestamp;pressure;altitude;pressure_sealevel;temperature;humidity
37298;BME280;30517;51.932;4.278;2022-08-19T00:01:27;101391.75;;;22.97;47.17
37298;BME280;30517;51.932;4.278;2022-08-19T00:04:12;101390.13;;;22.93;47.25
37298;BME280;30517;51.932;4.278;2022-08-19T00:06:54;101341.78;;;22.71;47.31
37298;BME280;30517;51.932;4.278;2022-08-19T00:09:35;101382.09;;;22.91;47.05
37298;BME280;30517;51.932;4.278;2022-08-19T00:12:16;101332.25;;;22.64;47.53
37298;BME280;30517;51.932;4.278;2022-08-19T00:14:57;101265.09;;;22.23;47.14
37298;BME280;30517;51.932;4.278;2022-08-19T00:17:43;101376.94;;;22.87;47.65
37298;BME280;30517;51.932;4.278;2022-08-19T00:20:24;101395.03;;;22.83;47.25
37298;BME280;30517;51.932;4.278;2022-08-19T00:23:06;101365.34;;;22.66;47.15
37298;BME280;30517;51.932;4.278;2022-08-19T00:25:47;101374.13;;;22.69;47.22
37298;BME280;30517;51.932;4.278;2022-08-19T00:28:28;101393.63;;;22.74;47.30
37298;BME280;30517;51.932;4.278;2022-08-19T00:31:09;101395.69;;;22.68;47.72
37298;BME280;30517;51.932;4.278;2022-08-19T00:33:50;101390.41;;;22.66;47.54
37298;BME280;30517;51.932;4.278;2022-08-19T00:36:31;101383.19;;;22.46;47.71
37298;BME280;30517;51.932;4.278;2022-08-19T00:39:14;101391.56;;;22.61;47.47
37298;BME280;30517;51.932;4.278;2022-08-19T00:41:55;101389.78;;;22.60;47.74
37298;BME280;30517;51.932;4.278;2022-08-19T00:44:36;101366.19;;;22.46;47.84
37298;BME280;30517;51.932;4.278;2022-08-19T00:47:18;101309.25;;;22.16;47.40
37298;BME280;30517;51.932;4.278;2022-08-19T00:49:59;101321.94;;;22.12;47.57
37298;BME280;30517;51.932;4.278;2022-08-19T00:52:43;101389.38;;;22.48;47.93
37298;BME280;30517;51.932;4.278;2022-08-19T00:55:26;101387.41;;;22.52;47.66
37298;BME280;30517;51.932;4.278;2022-08-19T00:58:12;101388.69;;;22.43;47.62
37298;BME280;30517;51.932;4.278;2022-08-19T01:00:54;101389.66;;;22.42;47.52
37298;BME280;30517;51.932;4.278;2022-08-19T01:03:35;101368.00;;;22.25;48.10
37298;BME280;30517;51.932;4.278;2022-08-19T01:06:16;101320.50;;;22.03;47.69
37298;BME280;30517;51.932;4.278;2022-08-19T01:08:58;101403.59;;;22.30;48.15
37298;BME280;30517;51.932;4.278;2022-08-19T01:11:41;101395.00;;;22.22;47.81
37298;BME280;30517;51.932;4.278;2022-08-19T01:14:25;101396.44;;;22.30;48.33
37298;BME280;30517;51.932;4.278;2022-08-19T01:17:08;101347.91;;;21.91;47.93
37298;BME280;30517;51.932;4.278;2022-08-19T01:19:50;101284.97;;;21.54;47.79
37298;BME280;30517;51.932;4.278;2022-08-19T01:22:34;101384.25;;;22.00;48.37
37298;BME280;30517;51.932;4.278;2022-08-19T01:25:20;101400.50;;;22.19;48.11
37298;BME280;30517;51.932;4.278;2022-08-19T01:28:02;101347.44;;;22.02;47.84
37298;BME280;30517;51.932;4.278;2022-08-19T01:30:44;101391.38;;;22.23;48.11
37298;BME280;30517;51.932;4.278;2022-08-19T01:33:26;101335.59;;;21.85;48.24
37298;BME280;30517;51.932;4.278;2022-08-19T01:36:08;101391.66;;;22.15;47.91
37298;BME280;30517;51.932;4.278;2022-08-19T01:38:49;101365.88;;;21.89;48.23
37298;BME280;30517;51.932;4.278;2022-08-19T01:41:30;101386.16;;;22.20;47.72
37298;BME280;30517;51.932;4.278;2022-08-19T01:44:12;101378.25;;;21.93;48.05
37298;BME280;30517;51.932;4.278;2022-08-19T01:46:52;101224.28;;;21.06;48.38
37298;BME280;30517;51.932;4.278;2022-08-19T01:49:33;101377.19;;;21.97;48.06
37298;BME280;30517;51.932;4.278;2022-08-19T01:52:14;101404.59;;;22.05;48.22
37298;BME280;30517;51.932;4.278;2022-08-19T01:54:55;101403.91;;;22.00;48.40
37298;BME280;30517;51.932;4.278;2022-08-19T01:57:36;101395.50;;;21.87;48.71
37298;BME280;30517;51.932;4.278;2022-08-19T02:00:20;101362.25;;;21.68;48.57
37298;BME280;30517;51.932;4.278;2022-08-19T02:03:01;101368.31;;;21.73;48.69
37298;BME280;30517;51.932;4.278;2022-08-19T02:05:42;101395.84;;;22.00;48.14
37298;BME280;30517;51.932;4.278;2022-08-19T02:08:23;101360.78;;;21.61;48.79
37298;BME280;30517;51.932;4.278;2022-08-19T02:11:05;101398.28;;;21.84;48.57
37298;BME280;30517;51.932;4.278;2022-08-19T02:13:46;101405.59;;;21.81;48.65
37298;BME280;30517;51.932;4.278;2022-08-19T02:16:29;101394.72;;;21.84;48.28
37298;BME280;30517;51.932;4.278;2022-08-19T02:19:10;101374.63;;;21.72;48.52
37298;BME280;30517;51.932;4.278;2022-08-19T02:21:51;101237.59;;;20.86;48.88
37298;BME280;30517;51.932;4.278;2022-08-19T02:24:32;101387.97;;;21.74;48.61
37298;BME280;30517;51.932;4.278;2022-08-19T02:27:14;101329.84;;;21.27;49.30
37298;BME280;30517;51.932;4.278;2022-08-19T02:29:55;101354.75;;;21.54;48.74
37298;BME280;30517;51.932;4.278;2022-08-19T02:35:17;101372.06;;;21.47;49.09
37298;BME280;30517;51.932;4.278;2022-08-19T02:37:58;101339.34;;;21.36;49.35
37298;BME280;30517;51.932;4.278;2022-08-19T02:41:07;101336.75;;;21.34;48.73
37298;BME280;30517;51.932;4.278;2022-08-19T02:43:50;101392.03;;;21.62;48.90
37298;BME280;30517;51.932;4.278;2022-08-19T02:46:32;101377.00;;;21.58;49.11
37298;BME280;30517;51.932;4.278;2022-08-19T02:49:13;101381.81;;;21.50;49.59
37298;BME280;30517;51.932;4.278;2022-08-19T02:51:56;101372.84;;;21.49;49.53
37298;BME280;30517;51.932;4.278;2022-08-19T02:54:37;101340.53;;;21.29;49.52
37298;BME280;30517;51.932;4.278;2022-08-19T02:57:18;101374.63;;;21.50;49.42
37298;BME280;30517;51.932;4.278;2022-08-19T02:59:59;101316.25;;;21.10;49.60
37298;BME280;30517;51.932;4.278;2022-08-19T03:02:41;101371.47;;;21.39;49.82
37298;BME280;30517;51.932;4.278;2022-08-19T03:05:22;101272.50;;;20.84;49.47
37298;BME280;30517;51.932;4.278;2022-08-19T03:08:03;101326.84;;;21.13;49.59
37298;BME280;30517;51.932;4.278;2022-08-19T03:10:47;101360.81;;;21.36;49.95
37298;BME280;30517;51.932;4.278;2022-08-19T03:13:28;101334.59;;;21.20;49.79
37298;BME280;30517;51.932;4.278;2022-08-19T03:16:10;101361.84;;;21.33;49.77
37298;BME280;30517;51.932;4.278;2022-08-19T03:18:51;101358.72;;;21.44;49.50
37298;BME280;30517;51.932;4.278;2022-08-19T03:21:34;101334.84;;;21.14;49.44
37298;BME280;30517;51.932;4.278;2022-08-19T03:24:15;101356.75;;;21.49;48.94
37298;BME280;30517;51.932;4.278;2022-08-19T03:26:58;101360.50;;;21.45;49.30
37298;BME280;30517;51.932;4.278;2022-08-19T03:29:39;101269.94;;;21.05;48.87
37298;BME280;30517;51.932;4.278;2022-08-19T03:32:19;101335.19;;;21.29;49.42
37298;BME280;30517;51.932;4.278;2022-08-19T03:35:02;101336.78;;;21.33;49.16
37298;BME280;30517;51.932;4.278;2022-08-19T03:37:43;101230.56;;;20.60;49.76
37298;BME280;30517;51.932;4.278;2022-08-19T03:40:23;101363.81;;;21.28;49.57
37298;BME280;30517;51.932;4.278;2022-08-19T03:43:05;101375.53;;;21.26;50.07
37298;BME280;30517;51.932;4.278;2022-08-19T03:45:46;101354.38;;;21.18;49.79
37298;BME280;30517;51.932;4.278;2022-08-19T03:48:28;101379.59;;;21.37;49.48
37298;BME280;30517;51.932;4.278;2022-08-19T03:51:19;101201.34;;;20.28;49.73
37298;BME280;30517;51.932;4.278;2022-08-19T03:54:04;101324.41;;;21.07;49.45
37298;BME280;30517;51.932;4.278;2022-08-19T03:56:46;101370.81;;;21.32;49.53
37298;BME280;30517;51.932;4.278;2022-08-19T03:59:31;101329.16;;;21.22;49.02
37298;BME280;30517;51.932;4.278;2022-08-19T04:02:12;101296.09;;;20.98;49.06
37298;BME280;30517;51.932;4.278;2022-08-19T04:04:53;101333.06;;;21.13;49.09
37298;BME280;30517;51.932;4.278;2022-08-19T04:07:35;101298.63;;;21.03;48.80
37298;BME280;30517;51.932;4.278;2022-08-19T04:10:16;101289.78;;;20.77;49.52
37298;BME280;30517;51.932;4.278;2022-08-19T04:12:57;101337.28;;;20.97;49.24
37298;BME280;30517;51.932;4.278;2022-08-19T04:15:42;101172.44;;;20.13;48.96
37298;BME280;30517;51.932;4.278;2022-08-19T04:18:25;101196.22;;;19.97;49.26
37298;BME280;30517;51.932;4.278;2022-08-19T04:21:19;101280.84;;;20.76;49.27
37298;BME280;30517;51.932;4.278;2022-08-19T04:24:00;101379.34;;;21.20;49.79
37298;BME280;30517;51.932;4.278;2022-08-19T04:26:41;101261.88;;;20.58;49.30
37298;BME280;30517;51.932;4.278;2022-08-19T04:29:24;101388.00;;;21.27;49.31
37298;BME280;30517;51.932;4.278;2022-08-19T04:32:05;101386.41;;;21.23;49.62
37298;BME280;30517;51.932;4.278;2022-08-19T04:34:46;101379.13;;;21.25;49.35
37298;BME280;30517;51.932;4.278;2022-08-19T04:37:27;101257.91;;;20.44;49.49
37298;BME280;30517;51.932;4.278;2022-08-19T04:40:11;101332.34;;;21.10;49.00
37298;BME280;30517;51.932;4.278;2022-08-19T04:43:11;100890.03;;;18.55;49.07
37298;BME280;30517;51.932;4.278;2022-08-19T04:45:54;101362.53;;;21.15;49.38
37298;BME280;30517;51.932;4.278;2022-08-19T04:48:35;101366.38;;;21.08;50.13
37298;BME280;30517;51.932;4.278;2022-08-19T04:51:16;101254.25;;;20.47;49.84
37298;BME280;30517;51.932;4.278;2022-08-19T04:53:57;101276.94;;;20.37;49.93
37298;BME280;30517;51.932;4.278;2022-08-19T04:56:40;101292.66;;;20.46;49.99
37298;BME280;30517;51.932;4.278;2022-08-19T04:59:21;101329.91;;;20.78;49.99
37298;BME280;30517;51.932;4.278;2022-08-19T05:02:03;101356.81;;;21.00;49.76
37298;BME280;30517;51.932;4.278;2022-08-19T05:04:45;101373.72;;;21.03;49.70
37298;BME280;30517;51.932;4.278;2022-08-19T05:07:26;101365.38;;;21.10;49.18
37298;BME280;30517;51.932;4.278;2022-08-19T05:10:07;101386.47;;;21.19;49.67
37298;BME280;30517;51.932;4.278;2022-08-19T05:12:48;101278.75;;;20.61;49.32
37298;BME280;30517;51.932;4.278;2022-08-19T05:15:30;101333.72;;;20.96;49.01
37298;BME280;30517;51.932;4.278;2022-08-19T05:18:11;101385.03;;;21.11;49.68
37298;BME280;30517;51.932;4.278;2022-08-19T05:21:14;101063.28;;;19.21;49.64
37298;BME280;30517;51.932;4.278;2022-08-19T05:24:14;101128.06;;;19.56;49.92
37298;BME280;30517;51.932;4.278;2022-08-19T05:26:55;101308.94;;;20.66;49.50
37298;BME280;30517;51.932;4.278;2022-08-19T05:29:36;101248.63;;;20.29;49.47
37298;BME280;30517;51.932;4.278;2022-08-19T05:32:17;101237.16;;;20.26;49.45
37298;BME280;30517;51.932;4.278;2022-08-19T05:34:58;101089.44;;;19.38;49.67
37298;BME280;30517;51.932;4.278;2022-08-19T05:37:39;100931.69;;;18.34;50.09
37298;BME280;30517;51.932;4.278;2022-08-19T05:40:20;100936.94;;;18.09;49.74
37298;BME280;30517;51.932;4.278;2022-08-19T05:43:04;101045.41;;;19.23;48.97
37298;BME280;30517;51.932;4.278;2022-08-19T05:45:46;101151.38;;;20.04;49.20
37298;BME280;30517;51.932;4.278;2022-08-19T05:48:27;101237.34;;;20.45;49.13
37298;BME280;30517;51.932;4.278;2022-08-19T05:51:08;101098.81;;;19.76;48.94
37298;BME280;30517;51.932;4.278;2022-08-19T05:53:49;100939.63;;;18.63;48.99
37298;BME280;30517;51.932;4.278;2022-08-19T05:56:30;101375.78;;;21.43;48.71
37298;BME280;30517;51.932;4.278;2022-08-19T05:59:11;101056.72;;;19.55;48.64
37298;BME280;30517;51.932;4.278;2022-08-19T06:01:53;101261.97;;;20.56;49.65
37298;BME280;30517;51.932;4.278;2022-08-19T06:04:36;101391.84;;;21.19;50.85
37298;BME280;30517;51.932;4.278;2022-08-19T06:07:19;101388.38;;;21.41;49.62
37298;BME280;30517;51.932;4.278;2022-08-19T06:10:00;101041.19;;;19.16;49.44
37298;BME280;30517;51.932;4.278;2022-08-19T06:12:41;101437.84;;;21.34;49.84
37298;BME280;30517;51.932;4.278;2022-08-19T06:15:22;101121.72;;;19.85;49.46
37298;BME280;30517;51.932;4.278;2022-08-19T06:18:05;101235.25;;;20.53;49.42
37298;BME280;30517;51.932;4.278;2022-08-19T06:20:46;101178.22;;;19.76;49.13
37298;BME280;30517;51.932;4.278;2022-08-19T06:23:27;101256.31;;;20.64;49.71
37298;BME280;30517;51.932;4.278;2022-08-19T06:26:11;101386.63;;;21.40;49.60
37298;BME280;30517;51.932;4.278;2022-08-19T06:28:53;101096.31;;;19.72;49.11
37298;BME280;30517;51.932;4.278;2022-08-19T06:31:35;101382.97;;;21.42;49.38
37298;BME280;30517;51.932;4.278;2022-08-19T06:34:17;101259.38;;;20.76;49.07
37298;BME280;30517;51.932;4.278;2022-08-19T06:37:00;101058.91;;;19.43;48.68
37298;BME280;30517;51.932;4.278;2022-08-19T06:39:43;101384.53;;;21.48;48.67
37298;BME280;30517;51.932;4.278;2022-08-19T06:42:24;101342.06;;;20.89;49.10
37298;BME280;30517;51.932;4.278;2022-08-19T06:45:06;101166.97;;;20.16;48.80
37298;BME280;30517;51.932;4.278;2022-08-19T06:47:48;101375.66;;;21.46;48.79
37298;BME280;30517;51.932;4.278;2022-08-19T06:50:29;101142.34;;;20.06;48.78
37298;BME280;30517;51.932;4.278;2022-08-19T06:53:10;100998.88;;;19.27;48.74
37298;BME280;30517;51.932;4.278;2022-08-19T06:55:51;101269.38;;;20.73;48.48
37298;BME280;30517;51.932;4.278;2022-08-19T06:58:37;101023.66;;;19.32;48.74
37298;BME280;30517;51.932;4.278;2022-08-19T07:01:19;101070.31;;;19.75;48.71
37298;BME280;30517;51.932;4.278;2022-08-19T07:04:01;101009.47;;;19.30;48.83
37298;BME280;30517;51.932;4.278;2022-08-19T07:06:43;101102.06;;;19.84;48.82
37298;BME280;30517;51.932;4.278;2022-08-19T07:09:25;101108.09;;;19.91;48.64
37298;BME280;30517;51.932;4.278;2022-08-19T07:12:08;100991.03;;;19.22;48.12
37298;BME280;30517;51.932;4.278;2022-08-19T07:14:49;101092.34;;;19.82;48.49
37298;BME280;30517;51.932;4.278;2022-08-19T07:17:30;101088.22;;;19.73;48.16
37298;BME280;30517;51.932;4.278;2022-08-19T07:20:12;101343.84;;;21.35;48.53
37298;BME280;30517;51.932;4.278;2022-08-19T07:22:52;101397.47;;;21.60;48.46
37298;BME280;30517;51.932;4.278;2022-08-19T07:25:36;101162.34;;;20.20;48.64
37298;BME280;30517;51.932;4.278;2022-08-19T07:28:17;101309.47;;;20.99;49.00
37298;BME280;30517;51.932;4.278;2022-08-19T07:30:58;101339.59;;;21.30;48.84
37298;BME280;30517;51.932;4.278;2022-08-19T07:33:41;101138.53;;;19.88;48.66
37298;BME280;30517;51.932;4.278;2022-08-19T07:36:25;101342.59;;;20.98;48.68
37298;BME280;30517;51.932;4.278;2022-08-19T07:39:15;101247.88;;;20.74;48.78
37298;BME280;30517;51.932;4.278;2022-08-19T07:41:58;101400.75;;;21.69;48.67
37298;BME280;30517;51.932;4.278;2022-08-19T07:44:39;101400.75;;;21.69;48.74
37298;BME280;30517;51.932;4.278;2022-08-19T07:47:22;101077.97;;;19.84;48.62
37298;BME280;30517;51.932;4.278;2022-08-19T07:50:04;101422.09;;;21.72;48.61
37298;BME280;30517;51.932;4.278;2022-08-19T07:52:46;101303.88;;;21.06;49.07
37298;BME280;30517;51.932;4.278;2022-08-19T07:55:28;101461.28;;;21.76;48.77
37298;BME280;30517;51.932;4.278;2022-08-19T07:58:11;101086.72;;;19.89;49.12
37298;BME280;30517;51.932;4.278;2022-08-19T08:00:53;101153.81;;;20.33;48.94
37298;BME280;30517;51.932;4.278;2022-08-19T08:03:36;101403.88;;;21.80;48.84
37298;BME280;30517;51.932;4.278;2022-08-19T08:06:35;101167.81;;;20.17;48.89
37298;BME280;30517;51.932;4.278;2022-08-19T08:09:38;101305.13;;;21.19;49.84
37298;BME280;30517;51.932;4.278;2022-08-19T08:12:24;101418.91;;;21.84;49.23
37298;BME280;30517;51.932;4.278;2022-08-19T08:15:13;101424.06;;;21.90;49.09
37298;BME280;30517;51.932;4.278;2022-08-19T08:17:58;101113.63;;;20.10;48.69
37298;BME280;30517;51.932;4.278;2022-08-19T08:20:39;101035.13;;;19.61;49.08
37298;BME280;30517;51.932;4.278;2022-08-19T08:23:20;101289.03;;;21.19;48.85
37298;BME280;30517;51.932;4.278;2022-08-19T08:26:08;101139.91;;;20.24;49.41
37298;BME280;30517;51.932;4.278;2022-08-19T08:28:49;100965.81;;;19.30;48.97
37298;BME280;30517;51.932;4.278;2022-08-19T08:31:30;101356.53;;;21.55;48.90
37298;BME280;30517;51.932;4.278;2022-08-19T08:34:12;101375.63;;;21.70;49.04
37298;BME280;30517;51.932;4.278;2022-08-19T08:36:53;101438.59;;;22.06;49.13
37298;BME280;30517;51.932;4.278;2022-08-19T08:39:34;101417.47;;;21.75;49.22
37298;BME280;30517;51.932;4.278;2022-08-19T08:42:22;101453.66;;;22.10;48.98
37298;BME280;30517;51.932;4.278;2022-08-19T08:45:12;101358.66;;;21.69;48.93
37298;BME280;30517;51.932;4.278;2022-08-19T08:47:57;101169.13;;;20.55;48.87
37298;BME280;30517;51.932;4.278;2022-08-19T08:50:44;101305.13;;;21.42;48.80
37298;BME280;30517;51.932;4.278;2022-08-19T08:53:27;101364.63;;;21.76;48.70
37298;BME280;30517;51.932;4.278;2022-08-19T08:56:09;101393.34;;;21.74;48.65
37298;BME280;30517;51.932;4.278;2022-08-19T08:58:56;101445.88;;;22.26;48.59
37298;BME280;30517;51.932;4.278;2022-08-19T09:01:38;101180.47;;;20.84;48.55
37298;BME280;30517;51.932;4.278;2022-08-19T09:04:19;101401.75;;;21.88;48.76
37298;BME280;30517;51.932;4.278;2022-08-19T09:07:39;101441.03;;;22.35;48.49
37298;BME280;30517;51.932;4.278;2022-08-19T09:10:29;101446.28;;;22.38;48.83
37298;BME280;30517;51.932;4.278;2022-08-19T09:16:07;101137.81;;;20.55;48.50
37298;BME280;30517;51.932;4.278;2022-08-19T09:18:51;101495.31;;;22.44;48.48
37298;BME280;30517;51.932;4.278;2022-08-19T09:21:34;101326.13;;;21.77;48.76
37298;BME280;30517;51.932;4.278;2022-08-19T09:24:15;101334.09;;;21.78;48.57
37298;BME280;30517;51.932;4.278;2022-08-19T09:26:56;101236.03;;;21.26;48.90
37298;BME280;30517;51.932;4.278;2022-08-19T09:29:37;101064.94;;;20.22;48.94
37298;BME280;30517;51.932;4.278;2022-08-19T09:32:17;101093.19;;;20.31;48.67
37298;BME280;30517;51.932;4.278;2022-08-19T09:34:58;101110.16;;;20.55;48.73
37298;BME280;30517;51.932;4.278;2022-08-19T09:37:42;101203.41;;;21.14;48.64
37298;BME280;30517;51.932;4.278;2022-08-19T09:40:26;101169.28;;;20.96;48.63
37298;BME280;30517;51.932;4.278;2022-08-19T09:43:06;101242.88;;;21.11;49.02
37298;BME280;30517;51.932;4.278;2022-08-19T09:45:48;101462.78;;;22.71;48.46
37298;BME280;30517;51.932;4.278;2022-08-19T09:48:29;101227.59;;;21.35;48.29
37298;BME280;30517;51.932;4.278;2022-08-19T09:51:12;101457.31;;;22.74;48.31
37298;BME280;30517;51.932;4.278;2022-08-19T09:54:00;101077.31;;;20.48;48.19
37298;BME280;30517;51.932;4.278;2022-08-19T09:56:43;101211.88;;;21.26;48.46
37298;BME280;30517;51.932;4.278;2022-08-19T09:59:24;101162.72;;;21.03;48.34
37298;BME280;30517;51.932;4.278;2022-08-19T10:02:05;101200.06;;;21.30;48.65
37298;BME280;30517;51.932;4.278;2022-08-19T10:04:46;101057.75;;;20.46;48.18
37298;BME280;30517;51.932;4.278;2022-08-19T10:07:45;101179.94;;;21.19;48.15
37298;BME280;30517;51.932;4.278;2022-08-19T10:10:27;101442.91;;;22.75;48.04
37298;BME280;30517;51.932;4.278;2022-08-19T10:13:08;101348.00;;;22.10;48.06
37298;BME280;30517;51.932;4.278;2022-08-19T10:15:49;101474.28;;;22.96;48.00
37298;BME280;30517;51.932;4.278;2022-08-19T10:18:30;101313.41;;;22.02;48.00
37298;BME280;30517;51.932;4.278;2022-08-19T10:21:17;101195.34;;;21.36;47.99
37298;BME280;30517;51.932;4.278;2022-08-19T10:24:00;101472.13;;;23.05;48.06
37298;BME280;30517;51.932;4.278;2022-08-19T10:26:44;101244.91;;;21.72;47.90
37298;BME280;30517;51.932;4.278;2022-08-19T10:29:27;101232.53;;;21.68;47.71
37298;BME280;30517;51.932;4.278;2022-08-19T10:32:09;101469.13;;;23.11;48.13
37298;BME280;30517;51.932;4.278;2022-08-19T10:34:50;101374.13;;;22.49;48.17
37298;BME280;30517;51.932;4.278;2022-08-19T10:37:32;101341.00;;;22.28;48.07
37298;BME280;30517;51.932;4.278;2022-08-19T10:40:13;101429.31;;;22.78;48.29
37298;BME280;30517;51.932;4.278;2022-08-19T10:42:55;101370.19;;;22.58;48.21
37298;BME280;30517;51.932;4.278;2022-08-19T10:45:36;101195.06;;;21.64;48.02
37298;BME280;30517;51.932;4.278;2022-08-19T10:48:17;101396.72;;;22.86;47.91
37298;BME280;30517;51.932;4.278;2022-08-19T10:50:58;101233.00;;;21.98;48.05
37298;BME280;30517;51.932;4.278;2022-08-19T10:53:58;101253.34;;;22.03;47.66
37298;BME280;30517;51.932;4.278;2022-08-19T10:56:39;101230.47;;;21.95;47.96
37298;BME280;30517;51.932;4.278;2022-08-19T10:59:32;101466.16;;;23.37;47.90
37298;BME280;30517;51.932;4.278;2022-08-19T11:02:15;101240.56;;;21.68;48.01
37298;BME280;30517;51.932;4.278;2022-08-19T11:04:56;101040.56;;;20.96;48.12
37298;BME280;30517;51.932;4.278;2022-08-19T11:07:38;101323.53;;;22.59;48.05
37298;BME280;30517;51.932;4.278;2022-08-19T11:10:20;101459.19;;;23.33;47.78
37298;BME280;30517;51.932;4.278;2022-08-19T11:13:01;101149.56;;;21.61;48.22
37298;BME280;30517;51.932;4.278;2022-08-19T11:15:43;101320.22;;;22.52;49.19
37298;BME280;30517;51.932;4.278;2022-08-19T11:18:26;101403.69;;;22.49;58.82
37298;BME280;30517;51.932;4.278;2022-08-19T11:21:08;101439.59;;;22.89;59.64
37298;BME280;30517;51.932;4.278;2022-08-19T11:23:51;101462.66;;;23.54;55.29
37298;BME280;30517;51.932;4.278;2022-08-19T11:26:34;101439.59;;;23.49;53.75
37298;BME280;30517;51.932;4.278;2022-08-19T11:29:16;101463.16;;;23.83;52.67
37298;BME280;30517;51.932;4.278;2022-08-19T11:31:57;101470.28;;;23.84;52.56
37298;BME280;30517;51.932;4.278;2022-08-19T11:34:38;101444.75;;;23.74;52.24
37298;BME280;30517;51.932;4.278;2022-08-19T11:37:19;101396.81;;;23.42;51.82
37298;BME280;30517;51.932;4.278;2022-08-19T11:40:00;101467.22;;;23.92;51.59
37298;BME280;30517;51.932;4.278;2022-08-19T11:42:41;101425.22;;;23.69;51.27
37298;BME280;30517;51.932;4.278;2022-08-19T11:45:37;101470.66;;;23.95;51.04
37298;BME280;30517;51.932;4.278;2022-08-19T11:48:18;101390.97;;;23.52;51.03
37298;BME280;30517;51.932;4.278;2022-08-19T11:51:06;101468.75;;;23.97;50.69
37298;BME280;30517;51.932;4.278;2022-08-19T11:53:48;101468.75;;;23.97;50.82
37298;BME280;30517;51.932;4.278;2022-08-19T11:56:30;101444.75;;;23.93;51.42
37298;BME280;30517;51.932;4.278;2022-08-19T11:59:11;101463.94;;;24.04;51.34
37298;BME280;30517;51.932;4.278;2022-08-19T12:01:52;101449.09;;;23.95;51.35
37298;BME280;30517;51.932;4.278;2022-08-19T12:04:33;101437.03;;;23.85;51.19
37298;BME280;30517;51.932;4.278;2022-08-19T12:07:14;101387.78;;;23.62;50.71
37298;BME280;30517;51.932;4.278;2022-08-19T12:09:54;101449.09;;;23.95;50.68
37298;BME280;30517;51.932;4.278;2022-08-19T12:12:36;101470.75;;;24.11;50.77
37298;BME280;30517;51.932;4.278;2022-08-19T12:15:22;101475.22;;;24.12;50.13
37298;BME280;30517;51.932;4.278;2022-08-19T12:18:04;101472.44;;;24.14;50.04
37298;BME280;30517;51.932;4.278;2022-08-19T12:20:45;101465.09;;;24.17;49.84
37298;BME280;30517;51.932;4.278;2022-08-19T12:23:27;101445.63;;;24.11;50.04
37298;BME280;30517;51.932;4.278;2022-08-19T12:26:10;101462.16;;;24.22;49.65
37298;BME280;30517;51.932;4.278;2022-08-19T12:28:51;101467.47;;;24.23;49.76
37298;BME280;30517;51.932;4.278;2022-08-19T12:31:32;101352.72;;;23.64;49.53
37298;BME280;30517;51.932;4.278;2022-08-19T12:34:13;101468.13;;;24.28;49.97
37298;BME280;30517;51.932;4.278;2022-08-19T12:36:53;101395.34;;;23.92;49.58
37298;BME280;30517;51.932;4.278;2022-08-19T12:39:37;101457.13;;;24.33;49.23
37298;BME280;30517;51.932;4.278;2022-08-19T12:42:18;101428.94;;;24.21;49.42
37298;BME280;30517;51.932;4.278;2022-08-19T12:45:02;101393.06;;;24.02;49.33
37298;BME280;30517;51.932;4.278;2022-08-19T12:47:43;101462.88;;;24.44;48.77
37298;BME280;30517;51.932;4.278;2022-08-19T12:50:26;101376.41;;;23.94;49.28
37298;BME280;30517;51.932;4.278;2022-08-19T12:53:07;101458.03;;;24.51;48.96
37298;BME280;30517;51.932;4.278;2022-08-19T12:55:48;101398.25;;;24.24;49.13
37298;BME280;30517;51.932;4.278;2022-08-19T12:58:36;101417.44;;;24.35;49.11
37298;BME280;30517;51.932;4.278;2022-08-19T13:01:17;101439.41;;;24.27;54.20
37298;BME280;30517;51.932;4.278;2022-08-19T13:03:59;101454.53;;;24.13;55.42
37298;BME280;30517;51.932;4.278;2022-08-19T13:06:40;101351.09;;;23.60;55.23
37298;BME280;30517;51.932;4.278;2022-08-19T13:09:22;101233.69;;;23.02;56.43
37298;BME280;30517;51.932;4.278;2022-08-19T13:12:03;101378.84;;;23.81;55.48
37298;BME280;30517;51.932;4.278;2022-08-19T13:14:47;101459.25;;;24.63;55.40
37298;BME280;30517;51.932;4.278;2022-08-19T13:17:29;101438.22;;;24.52;55.46
37298;BME280;30517;51.932;4.278;2022-08-19T13:20:11;101357.50;;;24.30;55.43
37298;BME280;30517;51.932;4.278;2022-08-19T13:22:52;101409.16;;;24.57;55.67
37298;BME280;30517;51.932;4.278;2022-08-19T13:25:33;101374.25;;;24.37;55.09
37298;BME280;30517;51.932;4.278;2022-08-19T13:28:14;101440.97;;;24.85;56.14
37298;BME280;30517;51.932;4.278;2022-08-19T13:30:58;101392.59;;;24.11;56.08
37298;BME280;30517;51.932;4.278;2022-08-19T13:34:19;101405.31;;;24.96;54.10
37298;BME280;30517;51.932;4.278;2022-08-19T13:37:01;101443.34;;;25.42;52.76
37298;BME280;30517;51.932;4.278;2022-08-19T13:39:45;101435.44;;;25.55;52.35
37298;BME280;30517;51.932;4.278;2022-08-19T13:42:27;101445.22;;;25.57;51.37
37298;BME280;30517;51.932;4.278;2022-08-19T13:45:10;101369.91;;;25.02;51.29
37298;BME280;30517;51.932;4.278;2022-08-19T13:47:53;101440.50;;;25.61;50.98
37298;BME280;30517;51.932;4.278;2022-08-19T13:50:40;101441.28;;;25.63;51.02
37298;BME280;30517;51.932;4.278;2022-08-19T13:53:21;101440.31;;;25.64;50.61
37298;BME280;30517;51.932;4.278;2022-08-19T13:56:07;101406.34;;;25.44;50.56
37298;BME280;30517;51.932;4.278;2022-08-19T13:58:47;101398.56;;;25.38;50.39
37298;BME280;30517;51.932;4.278;2022-08-19T14:01:28;101381.38;;;25.23;51.52
37298;BME280;30517;51.932;4.278;2022-08-19T14:04:10;101312.69;;;24.80;51.15
37298;BME280;30517;51.932;4.278;2022-08-19T14:06:51;101440.94;;;25.69;50.96
37298;BME280;30517;51.932;4.278;2022-08-19T14:09:32;101376.50;;;25.30;50.72
37298;BME280;30517;51.932;4.278;2022-08-19T14:12:12;101433.63;;;25.71;50.67
37298;BME280;30517;51.932;4.278;2022-08-19T14:14:53;101167.31;;;23.91;50.46
37298;BME280;30517;51.932;4.278;2022-08-19T14:17:38;101226.47;;;24.45;50.44